aviador You're here:

RJCK Decoded Metar

KUSHIRO AIRPORT in JAPAN
Report Time2018-02-25 11:00:00
UTC Time2018-02-25 11:35:06
Flight Rules vfr VFR
Wind270° at 11 kt
W.Decomp.*RWY 35: 3.4 kt HW 10.5 kt LCW
W.Rank270° ranks 19
Current wind is above 270° avg. (9.3)
Visibility9999 m
Phenomena:N/A
Clouds:Few 040 Hf
Expected CloudBase > 3,600 ft AGL from Temp-Dew spread
CeilingNone
Temp-6°C (ISA -20)
Dew Point-15°C (49% RH)
AAT-13.3°C
QNH1020 hPa
Density Alt-2,411 ft
Elevation322 ft
Report Wrong Elevation
Raw Report
METAR RJCK 251100Z 27011KT 240V310 9999 FEW040 M06/M15 Q1020=

Extra information for RJCK:More info

Metar Taf Metar & Taf Last 4 Metars F.Rules Stats Wind Profile Meteogram Temp Stats Airport Information Weather charts Add Link Nearby VenuesMetar ALERT Operation Metar Decoded Social comments